Terminal Aerodrome Forecast
Issued by NWS Wilmington, OH

Current Version | Previous Version | Text Only | Print | Product List | Glossary Off
Versions: 1 2 3 4 5 6 7 8 9 10 11 12 13 14 15 16 17 18 19 20 21 22 23 24 25 26

000
FTUS41 KILN 151736
TAFILN
TAF
KILN 151736Z 1518/1618 22011KT P6SM BKN011 OVC017
     FM152100 23012KT 3SM SHRA VCTS OVC015CB
     FM160300 23014G22KT 3SM SHRA VCTS OVC008CB
     FM160600 24013G21KT 3SM SHRA OVC015
     FM161000 31010KT 5SM -SHRA OVC015
     FM161300 34010KT P6SM VCSH OVC015=

USA.gov is the U.S. government's official web portal to all federal, state and local government web resources and services.